LEAMLELC

Guest
Details From LEAM - Almeria
To LELC - Murcia San Javier
Flight Number -
Tags generated
Created
Modified
Stats Distance 93 nm / 173 km
Max Altitude 0 ft / 0 m
Waypoints 3
Social Downloads 2
Likes 0
Share VATSIM

Download

Looking for another format? Having issues loading an existing format? Contact us
Advertisement - Login to hide

Notes

Basic altitude profile: - Ascent Rate: 2500ft/min - Ascent Speed: 250kts - Cruise Altitude: 35000ft - Cruise Speed: 420kts - Descent Rate: 1500ft/min - Descent Speed: 250kts Options: - Use NATs: yes - Use PACOTS: yes - Use low airways: yes - Use high airways: yes

Route

LEAM VSJ LELC

ID Type Via Altitude (ft/m) Position (lat/lon) Dist (leg/tot) Name
O LEAM APT - 0 / 0 36.84393 / -2.37010 - / 0 nm Almeria
VSJ VOR - 0 / 0 37.77978 / -0.81278 93 / 93 nm MURCIA/SAN JAVIER VOR-DME
O LELC APT - 0 / 0 37.78026 / -0.81226 0 / 93 nm Murcia San Javier

Altitude Profile

Advertisement - Login to hide

LEAM

Details ICAO LEAM (LEI)
Name Almeria
Region Spain
Timezone Unknown
Stats Elevation 69 ft / 21 m (AMSL)
Location 36.843900° -2.370100°
Runways 1
Magnetic Variation 0.129° W

METAR

LEAM 231830Z 21003KT 180V240 CAVOK 22/15 Q1014

Decode

TAF

TAF LEAM 231400Z 2315/2415 21007KT CAVOK TX25/2409Z TN17/2405Z= TAF LECO 231400Z 2315/2415 33010KT 9999 SCT030 TX17/2315Z TN10/2405Z BECMG 2317/2320 VRB05KT BECMG 2409/2411 01010KT

Decode

Departure Runways

ID Width Length Bearing (true/mag) Surface Threshold Overrun Markings Lighting
07 148 ft / 45 m 10,508 ft / 3,203 m 72.94° / 73.07° ASPHALT 515 ft / 157 m 0 ft / 0 m APP EDGE THRESHOLD MALS REIL-OMNI
25 148 ft / 45 m 10,508 ft / 3,203 m 252.96° / 253.09° ASPHALT 0 ft / 0 m 0 ft / 0 m PREC-APP EDGE THRESHOLD CALVERT REIL-OMNI

LELC

Details ICAO LELC (MJV)
Name Murcia San Javier
Region Spain
Timezone Europe/Madrid (UTC+2.0)
Stats Elevation 11 ft / 3 m (AMSL)
Location 37.780300° -0.812258°
Runways 3
Magnetic Variation 0.278° E

METAR

LELC 231830Z 13008KT 080V180 CAVOK 22/18 Q1015 NOSIG

Decode

TAF

TAF LELC 231700Z 2318/2418 13010KT CAVOK TX24/2411Z TN15/2406Z BECMG 2319/2321 VRB03KT BECMG 2409/2412 07014KT

Decode

Destination Runways

ID Width Length Bearing (true/mag) Surface Threshold Overrun Markings Lighting
05L 164 ft / 50 m 6,553 ft / 1,997 m 45.62° / 45.34° ASPHALT 656 ft / 200 m 0 ft / 0 m APP
05R 148 ft / 45 m 7,553 ft / 2,302 m 45.63° / 45.36° ASPHALT 0 ft / 0 m 656 ft / 200 m PREC-APP EDGE THRESHOLD REIL-OMNI
14 197 ft / 60 m 2,657 ft / 810 m 136.05° / 135.77° GRASS 0 ft / 0 m 0 ft / 0 m VISUAL
23L 148 ft / 45 m 7,553 ft / 2,302 m 225.65° / 225.37° ASPHALT 0 ft / 0 m 656 ft / 200 m APP EDGE THRESHOLD REIL-OMNI
23R 164 ft / 50 m 6,553 ft / 1,997 m 225.63° / 225.35° ASPHALT 656 ft / 200 m 0 ft / 0 m APP
32 197 ft / 60 m 2,657 ft / 810 m 316.05° / 315.77° GRASS 0 ft / 0 m 0 ft / 0 m VISUAL

Approach Navaids

Runway Type Ident Frequency Range Bearing (true/mag) Slope Elevation
05R MM MM - - 45.64° / 45.36 ° - 11 ft / 3 m (AMSL)
05R OM OM - - 45.64° / 45.36 ° - 11 ft / 3 m (AMSL)
05R GS ISJ 110.50 MHz 10 nm / 19 km 46.28° / 46.00 ° 2.80° 11 ft / 3 m (AMSL)
05R LOC-ILS ISJ 110.50 MHz 18 nm / 33 km 45.68° / 45.40 ° - 11 ft / 3 m (AMSL)

Popular Alternatives